Commerce City, Colorado
Current Conditions -  °F | °C
As of 10:58 AM on Thursday 23 Oct 2014 (Local Time) from KBKF Reporting Station
Scattered Clouds Scattered Clouds  
Wind Chill: 65°   Ceiling: Unl
Heat Index: 65°   Visibility: 10mi
Dew Point: 32°   Wind: 9mph
Humidity: 29%   Direction: 220°SW
Pressure: 30.2"   Gusts: NA
Location:  39.81°N, 104.92°W
Report Text: KBKF 231658Z 22008KT 10SM FEW110 SCT220 18/00 A3020 RMK AO2A SLP178 T01811001
Loading
Personal Weather Stations






























Interactive Weather Map
Tropical Storm Tracking
New forecast layout! Learn more

10-Day Weather Forecast

Advertisements
Track Severe Weather on mobile